sensor_id;sensor_type;location;lat;lon;timestamp;temperature;humidity
23116;DHT22;11727;52.134;5.052;2022-09-13T00:00:37;19.90;99.90
23116;DHT22;11727;52.134;5.052;2022-09-13T00:03:03;19.90;99.90
23116;DHT22;11727;52.134;5.052;2022-09-13T00:05:29;19.90;99.90
23116;DHT22;11727;52.134;5.052;2022-09-13T00:07:55;19.90;99.90
23116;DHT22;11727;52.134;5.052;2022-09-13T00:10:21;19.90;99.90
23116;DHT22;11727;52.134;5.052;2022-09-13T00:12:47;19.90;99.90
23116;DHT22;11727;52.134;5.052;2022-09-13T00:15:13;19.90;99.90
23116;DHT22;11727;52.134;5.052;2022-09-13T00:17:39;19.80;99.90
23116;DHT22;11727;52.134;5.052;2022-09-13T00:20:05;19.80;99.90
23116;DHT22;11727;52.134;5.052;2022-09-13T00:22:31;19.80;99.90
23116;DHT22;11727;52.134;5.052;2022-09-13T00:24:57;19.80;99.90
23116;DHT22;11727;52.134;5.052;2022-09-13T00:27:25;19.80;99.90
23116;DHT22;11727;52.134;5.052;2022-09-13T00:29:51;19.80;99.90
23116;DHT22;11727;52.134;5.052;2022-09-13T00:32:16;19.80;99.90
23116;DHT22;11727;52.134;5.052;2022-09-13T00:34:42;19.90;99.90
23116;DHT22;11727;52.134;5.052;2022-09-13T00:37:08;19.80;99.90
23116;DHT22;11727;52.134;5.052;2022-09-13T00:39:34;19.80;99.90
23116;DHT22;11727;52.134;5.052;2022-09-13T00:41:59;19.80;99.90
23116;DHT22;11727;52.134;5.052;2022-09-13T00:44:56;19.80;99.90
23116;DHT22;11727;52.134;5.052;2022-09-13T00:47:46;19.80;99.90
23116;DHT22;11727;52.134;5.052;2022-09-13T00:52:53;19.80;99.90
23116;DHT22;11727;52.134;5.052;2022-09-13T00:55:21;19.80;99.90
23116;DHT22;11727;52.134;5.052;2022-09-13T00:57:49;19.70;99.90
23116;DHT22;11727;52.134;5.052;2022-09-13T01:00:17;19.80;99.90
23116;DHT22;11727;52.134;5.052;2022-09-13T01:02:50;19.80;99.90
23116;DHT22;11727;52.134;5.052;2022-09-13T01:05:20;19.70;99.90
23116;DHT22;11727;52.134;5.052;2022-09-13T01:07:46;19.70;99.90
23116;DHT22;11727;52.134;5.052;2022-09-13T01:10:13;19.70;99.90
23116;DHT22;11727;52.134;5.052;2022-09-13T01:13:02;19.70;99.90
23116;DHT22;11727;52.134;5.052;2022-09-13T01:15:30;19.70;99.90
23116;DHT22;11727;52.134;5.052;2022-09-13T01:17:56;19.70;99.90
23116;DHT22;11727;52.134;5.052;2022-09-13T01:20:27;19.60;99.90
23116;DHT22;11727;52.134;5.052;2022-09-13T01:29:26;19.60;99.90
23116;DHT22;11727;52.134;5.052;2022-09-13T01:37:56;19.60;99.90
23116;DHT22;11727;52.134;5.052;2022-09-13T01:46:28;19.60;99.90
23116;DHT22;11727;52.134;5.052;2022-09-13T01:49:49;19.60;99.90
23116;DHT22;11727;52.134;5.052;2022-09-13T01:54:35;19.60;99.90
23116;DHT22;11727;52.134;5.052;2022-09-13T02:02:15;19.60;99.90
23116;DHT22;11727;52.134;5.052;2022-09-13T02:04:49;19.60;99.90
23116;DHT22;11727;52.134;5.052;2022-09-13T02:07:28;19.60;99.90
23116;DHT22;11727;52.134;5.052;2022-09-13T02:10:08;19.60;99.90
23116;DHT22;11727;52.134;5.052;2022-09-13T02:12:36;19.60;99.90
23116;DHT22;11727;52.134;5.052;2022-09-13T02:15:18;19.60;99.90
23116;DHT22;11727;52.134;5.052;2022-09-13T02:17:54;19.60;99.90
23116;DHT22;11727;52.134;5.052;2022-09-13T02:20:30;19.60;99.90
23116;DHT22;11727;52.134;5.052;2022-09-13T02:23:02;19.60;99.90
23116;DHT22;11727;52.134;5.052;2022-09-13T02:25:32;19.60;99.90
23116;DHT22;11727;52.134;5.052;2022-09-13T02:28:00;19.60;99.90
23116;DHT22;11727;52.134;5.052;2022-09-13T02:30:29;19.50;99.90
23116;DHT22;11727;52.134;5.052;2022-09-13T02:33:17;19.50;99.90
23116;DHT22;11727;52.134;5.052;2022-09-13T02:35:51;19.50;99.90
23116;DHT22;11727;52.134;5.052;2022-09-13T02:38:32;19.50;99.90
23116;DHT22;11727;52.134;5.052;2022-09-13T02:43:40;19.50;99.90
23116;DHT22;11727;52.134;5.052;2022-09-13T02:46:20;19.50;99.90
23116;DHT22;11727;52.134;5.052;2022-09-13T02:48:56;19.40;99.90
23116;DHT22;11727;52.134;5.052;2022-09-13T02:51:53;19.50;99.90
23116;DHT22;11727;52.134;5.052;2022-09-13T02:57:12;19.40;99.90
23116;DHT22;11727;52.134;5.052;2022-09-13T02:59:39;19.40;99.90
23116;DHT22;11727;52.134;5.052;2022-09-13T03:02:08;19.40;99.90
23116;DHT22;11727;52.134;5.052;2022-09-13T03:04:35;19.40;99.90
23116;DHT22;11727;52.134;5.052;2022-09-13T03:07:01;19.40;99.90
23116;DHT22;11727;52.134;5.052;2022-09-13T03:09:31;19.40;99.90
23116;DHT22;11727;52.134;5.052;2022-09-13T03:23:22;19.40;99.90
23116;DHT22;11727;52.134;5.052;2022-09-13T03:31:35;19.30;99.90
23116;DHT22;11727;52.134;5.052;2022-09-13T03:37:07;19.30;99.90
23116;DHT22;11727;52.134;5.052;2022-09-13T03:39:56;19.30;99.90
23116;DHT22;11727;52.134;5.052;2022-09-13T03:42:31;19.30;99.90
23116;DHT22;11727;52.134;5.052;2022-09-13T03:44:59;19.30;99.90
23116;DHT22;11727;52.134;5.052;2022-09-13T03:47:27;19.30;99.90
23116;DHT22;11727;52.134;5.052;2022-09-13T03:49:56;19.30;99.90
23116;DHT22;11727;52.134;5.052;2022-09-13T03:52:22;19.30;99.90
23116;DHT22;11727;52.134;5.052;2022-09-13T03:54:48;19.30;99.90
23116;DHT22;11727;52.134;5.052;2022-09-13T03:57:16;19.30;99.90
23116;DHT22;11727;52.134;5.052;2022-09-13T03:59:50;19.30;99.90
23116;DHT22;11727;52.134;5.052;2022-09-13T04:02:17;19.30;99.90
23116;DHT22;11727;52.134;5.052;2022-09-13T04:04:44;19.30;99.90
23116;DHT22;11727;52.134;5.052;2022-09-13T04:07:15;19.30;99.90
23116;DHT22;11727;52.134;5.052;2022-09-13T04:09:41;19.30;99.90
23116;DHT22;11727;52.134;5.052;2022-09-13T04:12:06;19.30;99.90
23116;DHT22;11727;52.134;5.052;2022-09-13T04:14:34;19.30;99.90
23116;DHT22;11727;52.134;5.052;2022-09-13T04:17:00;19.20;99.90
23116;DHT22;11727;52.134;5.052;2022-09-13T04:19:26;19.20;99.90
23116;DHT22;11727;52.134;5.052;2022-09-13T04:21:53;19.20;99.90
23116;DHT22;11727;52.134;5.052;2022-09-13T04:24:19;19.20;99.90
23116;DHT22;11727;52.134;5.052;2022-09-13T04:26:48;19.10;99.90
23116;DHT22;11727;52.134;5.052;2022-09-13T04:29:18;19.20;99.90
23116;DHT22;11727;52.134;5.052;2022-09-13T04:31:45;19.20;99.90
23116;DHT22;11727;52.134;5.052;2022-09-13T04:34:12;19.20;99.90
23116;DHT22;11727;52.134;5.052;2022-09-13T04:36:38;19.20;99.90
23116;DHT22;11727;52.134;5.052;2022-09-13T04:39:04;19.10;99.90
23116;DHT22;11727;52.134;5.052;2022-09-13T04:41:30;19.20;99.90
23116;DHT22;11727;52.134;5.052;2022-09-13T04:43:57;19.20;99.90
23116;DHT22;11727;52.134;5.052;2022-09-13T04:46:23;19.10;99.90
23116;DHT22;11727;52.134;5.052;2022-09-13T04:48:49;19.10;99.90
23116;DHT22;11727;52.134;5.052;2022-09-13T04:51:16;19.10;99.90
23116;DHT22;11727;52.134;5.052;2022-09-13T04:53:43;19.10;99.90
23116;DHT22;11727;52.134;5.052;2022-09-13T04:56:09;19.10;99.90
23116;DHT22;11727;52.134;5.052;2022-09-13T04:58:35;19.10;99.90
23116;DHT22;11727;52.134;5.052;2022-09-13T05:01:02;19.10;99.90
23116;DHT22;11727;52.134;5.052;2022-09-13T05:03:32;19.10;99.90
23116;DHT22;11727;52.134;5.052;2022-09-13T05:06:06;19.20;99.90
23116;DHT22;11727;52.134;5.052;2022-09-13T05:08:32;19.20;99.90
23116;DHT22;11727;52.134;5.052;2022-09-13T05:10:58;19.10;99.90
23116;DHT22;11727;52.134;5.052;2022-09-13T05:13:24;19.20;99.90
23116;DHT22;11727;52.134;5.052;2022-09-13T05:15:54;19.20;99.90
23116;DHT22;11727;52.134;5.052;2022-09-13T05:18:21;19.20;99.90
23116;DHT22;11727;52.134;5.052;2022-09-13T05:20:47;19.20;99.90
23116;DHT22;11727;52.134;5.052;2022-09-13T05:23:12;19.20;99.90
23116;DHT22;11727;52.134;5.052;2022-09-13T05:25:38;19.20;99.90
23116;DHT22;11727;52.134;5.052;2022-09-13T05:28:03;19.20;99.90
23116;DHT22;11727;52.134;5.052;2022-09-13T05:30:29;19.20;99.90
23116;DHT22;11727;52.134;5.052;2022-09-13T05:32:55;19.20;99.90
23116;DHT22;11727;52.134;5.052;2022-09-13T05:35:22;19.20;99.90
23116;DHT22;11727;52.134;5.052;2022-09-13T05:37:48;19.20;99.90
23116;DHT22;11727;52.134;5.052;2022-09-13T05:40:13;19.20;99.90
23116;DHT22;11727;52.134;5.052;2022-09-13T05:42:39;19.20;99.90
23116;DHT22;11727;52.134;5.052;2022-09-13T05:45:05;19.20;99.90
23116;DHT22;11727;52.134;5.052;2022-09-13T05:47:31;19.30;99.90
23116;DHT22;11727;52.134;5.052;2022-09-13T05:49:57;19.30;99.90
23116;DHT22;11727;52.134;5.052;2022-09-13T05:52:22;19.30;99.90
23116;DHT22;11727;52.134;5.052;2022-09-13T05:54:49;19.30;99.90
23116;DHT22;11727;52.134;5.052;2022-09-13T05:57:14;19.30;99.90
23116;DHT22;11727;52.134;5.052;2022-09-13T05:59:40;19.40;99.90
23116;DHT22;11727;52.134;5.052;2022-09-13T06:02:07;19.40;99.90
23116;DHT22;11727;52.134;5.052;2022-09-13T06:04:34;19.50;99.90
23116;DHT22;11727;52.134;5.052;2022-09-13T06:07:00;19.60;99.90
23116;DHT22;11727;52.134;5.052;2022-09-13T06:09:25;19.60;99.90
23116;DHT22;11727;52.134;5.052;2022-09-13T06:11:51;19.60;99.90
23116;DHT22;11727;52.134;5.052;2022-09-13T06:14:16;19.60;99.90
23116;DHT22;11727;52.134;5.052;2022-09-13T06:16:42;19.70;99.90
23116;DHT22;11727;52.134;5.052;2022-09-13T06:19:07;19.70;99.90
23116;DHT22;11727;52.134;5.052;2022-09-13T06:21:33;19.80;99.90
23116;DHT22;11727;52.134;5.052;2022-09-13T06:23:59;19.80;99.90
23116;DHT22;11727;52.134;5.052;2022-09-13T06:26:26;19.80;99.90
23116;DHT22;11727;52.134;5.052;2022-09-13T06:28:54;19.80;99.90
23116;DHT22;11727;52.134;5.052;2022-09-13T06:31:22;19.90;99.90
23116;DHT22;11727;52.134;5.052;2022-09-13T06:33:56;19.90;99.90
23116;DHT22;11727;52.134;5.052;2022-09-13T06:36:22;19.90;99.90
23116;DHT22;11727;52.134;5.052;2022-09-13T06:38:48;20.00;99.90
23116;DHT22;11727;52.134;5.052;2022-09-13T06:41:18;20.00;99.90
23116;DHT22;11727;52.134;5.052;2022-09-13T06:43:45;20.00;99.90
23116;DHT22;11727;52.134;5.052;2022-09-13T06:46:15;20.00;99.90
23116;DHT22;11727;52.134;5.052;2022-09-13T06:48:42;20.10;99.90
23116;DHT22;11727;52.134;5.052;2022-09-13T06:51:11;20.10;99.90
23116;DHT22;11727;52.134;5.052;2022-09-13T06:53:39;20.10;99.90
23116;DHT22;11727;52.134;5.052;2022-09-13T06:56:06;20.20;99.90
23116;DHT22;11727;52.134;5.052;2022-09-13T06:58:36;20.20;99.90
23116;DHT22;11727;52.134;5.052;2022-09-13T07:01:15;20.20;99.90
23116;DHT22;11727;52.134;5.052;2022-09-13T07:03:47;20.20;99.90
23116;DHT22;11727;52.134;5.052;2022-09-13T07:06:18;20.20;99.90
23116;DHT22;11727;52.134;5.052;2022-09-13T07:08:45;20.30;99.90
23116;DHT22;11727;52.134;5.052;2022-09-13T07:11:13;20.30;99.90
23116;DHT22;11727;52.134;5.052;2022-09-13T07:13:39;20.20;99.90
23116;DHT22;11727;52.134;5.052;2022-09-13T07:16:07;20.30;99.90
23116;DHT22;11727;52.134;5.052;2022-09-13T07:18:33;20.30;99.90
23116;DHT22;11727;52.134;5.052;2022-09-13T07:21:09;20.20;99.90
23116;DHT22;11727;52.134;5.052;2022-09-13T07:23:37;20.20;99.90
23116;DHT22;11727;52.134;5.052;2022-09-13T07:26:04;20.30;99.90
23116;DHT22;11727;52.134;5.052;2022-09-13T07:28:33;20.40;99.90
23116;DHT22;11727;52.134;5.052;2022-09-13T07:31:11;20.40;99.90
23116;DHT22;11727;52.134;5.052;2022-09-13T07:33:38;20.40;99.90
23116;DHT22;11727;52.134;5.052;2022-09-13T07:36:05;20.40;99.90
23116;DHT22;11727;52.134;5.052;2022-09-13T07:38:39;20.40;99.90
23116;DHT22;11727;52.134;5.052;2022-09-13T07:41:06;20.50;99.90
23116;DHT22;11727;52.134;5.052;2022-09-13T07:43:35;20.50;99.90
23116;DHT22;11727;52.134;5.052;2022-09-13T07:46:05;20.50;99.90
23116;DHT22;11727;52.134;5.052;2022-09-13T07:48:33;20.50;99.90
23116;DHT22;11727;52.134;5.052;2022-09-13T07:53:27;20.50;99.90
23116;DHT22;11727;52.134;5.052;2022-09-13T07:55:53;20.50;99.90
23116;DHT22;11727;52.134;5.052;2022-09-13T07:58:19;20.50;99.90
23116;DHT22;11727;52.134;5.052;2022-09-13T08:00:45;20.50;99.90
23116;DHT22;11727;52.134;5.052;2022-09-13T08:03:10;20.40;99.90
23116;DHT22;11727;52.134;5.052;2022-09-13T08:05:40;20.60;99.90
23116;DHT22;11727;52.134;5.052;2022-09-13T08:08:06;20.60;99.90
23116;DHT22;11727;52.134;5.052;2022-09-13T08:10:32;20.60;99.90
23116;DHT22;11727;52.134;5.052;2022-09-13T08:12:58;20.60;99.90
23116;DHT22;11727;52.134;5.052;2022-09-13T08:15:24;20.50;99.90
23116;DHT22;11727;52.134;5.052;2022-09-13T08:17:50;20.50;99.90
23116;DHT22;11727;52.134;5.052;2022-09-13T08:20:18;20.60;99.90
23116;DHT22;11727;52.134;5.052;2022-09-13T08:22:45;20.60;99.90
23116;DHT22;11727;52.134;5.052;2022-09-13T08:25:11;20.70;99.90
23116;DHT22;11727;52.134;5.052;2022-09-13T08:27:37;20.70;99.90
23116;DHT22;11727;52.134;5.052;2022-09-13T08:30:03;20.80;99.90
23116;DHT22;11727;52.134;5.052;2022-09-13T08:32:29;20.90;99.90
23116;DHT22;11727;52.134;5.052;2022-09-13T08:34:55;21.00;99.90
23116;DHT22;11727;52.134;5.052;2022-09-13T08:37:20;21.10;99.90
23116;DHT22;11727;52.134;5.052;2022-09-13T08:39:46;21.30;99.90
23116;DHT22;11727;52.134;5.052;2022-09-13T08:45:24;21.30;99.90
23116;DHT22;11727;52.134;5.052;2022-09-13T08:48:00;21.40;99.90
23116;DHT22;11727;52.134;5.052;2022-09-13T08:50:30;21.40;99.90
23116;DHT22;11727;52.134;5.052;2022-09-13T08:53:05;21.50;99.90
23116;DHT22;11727;52.134;5.052;2022-09-13T09:00:49;21.60;99.90
23116;DHT22;11727;52.134;5.052;2022-09-13T09:06:01;21.70;99.90
23116;DHT22;11727;52.134;5.052;2022-09-13T09:08:31;21.80;99.90
23116;DHT22;11727;52.134;5.052;2022-09-13T09:11:03;21.90;99.90
23116;DHT22;11727;52.134;5.052;2022-09-13T09:13:40;22.00;99.90
23116;DHT22;11727;52.134;5.052;2022-09-13T09:16:33;22.00;99.90
23116;DHT22;11727;52.134;5.052;2022-09-13T09:19:26;22.00;99.90
23116;DHT22;11727;52.134;5.052;2022-09-13T09:21:54;22.00;99.90
23116;DHT22;11727;52.134;5.052;2022-09-13T09:24:24;22.10;99.90
23116;DHT22;11727;52.134;5.052;2022-09-13T09:26:52;22.20;99.90
23116;DHT22;11727;52.134;5.052;2022-09-13T09:29:22;22.20;99.90
23116;DHT22;11727;52.134;5.052;2022-09-13T09:41:09;22.00;99.90
23116;DHT22;11727;52.134;5.052;2022-09-13T09:43:54;21.90;99.90
23116;DHT22;11727;52.134;5.052;2022-09-13T09:46:27;21.80;99.90
23116;DHT22;11727;52.134;5.052;2022-09-13T09:48:59;21.70;99.90
23116;DHT22;11727;52.134;5.052;2022-09-13T09:51:27;21.70;99.90
23116;DHT22;11727;52.134;5.052;2022-09-13T09:53:59;21.70;99.90
23116;DHT22;11727;52.134;5.052;2022-09-13T09:56:33;21.60;99.90
23116;DHT22;11727;52.134;5.052;2022-09-13T09:58:59;21.50;99.90
23116;DHT22;11727;52.134;5.052;2022-09-13T10:01:33;21.50;99.90
23116;DHT22;11727;52.134;5.052;2022-09-13T10:06:40;21.50;99.90
23116;DHT22;11727;52.134;5.052;2022-09-13T10:09:16;21.60;99.90
23116;DHT22;11727;52.134;5.052;2022-09-13T10:11:53;21.60;99.90
23116;DHT22;11727;52.134;5.052;2022-09-13T10:14:39;21.70;99.90
23116;DHT22;11727;52.134;5.052;2022-09-13T10:17:24;21.80;99.90
23116;DHT22;11727;52.134;5.052;2022-09-13T10:19:52;21.80;99.90
23116;DHT22;11727;52.134;5.052;2022-09-13T10:22:19;21.90;99.90
23116;DHT22;11727;52.134;5.052;2022-09-13T10:24:45;22.00;99.90
23116;DHT22;11727;52.134;5.052;2022-09-13T10:27:24;22.00;99.90
23116;DHT22;11727;52.134;5.052;2022-09-13T10:29:52;22.00;99.90
23116;DHT22;11727;52.134;5.052;2022-09-13T10:32:21;22.10;99.90
23116;DHT22;11727;52.134;5.052;2022-09-13T10:34:48;22.10;99.90
23116;DHT22;11727;52.134;5.052;2022-09-13T10:37:27;22.10;99.90
23116;DHT22;11727;52.134;5.052;2022-09-13T10:40:07;22.10;99.90
23116;DHT22;11727;52.134;5.052;2022-09-13T10:42:37;22.00;99.90
23116;DHT22;11727;52.134;5.052;2022-09-13T10:45:05;22.00;99.90
23116;DHT22;11727;52.134;5.052;2022-09-13T10:47:44;22.00;99.90
23116;DHT22;11727;52.134;5.052;2022-09-13T10:50:26;21.90;99.90
23116;DHT22;11727;52.134;5.052;2022-09-13T10:52:54;21.90;99.90
23116;DHT22;11727;52.134;5.052;2022-09-13T10:55:27;22.10;99.90
23116;DHT22;11727;52.134;5.052;2022-09-13T11:14:34;22.50;99.90
23116;DHT22;11727;52.134;5.052;2022-09-13T11:17:51;22.60;99.90
23116;DHT22;11727;52.134;5.052;2022-09-13T11:20:32;22.80;99.90
23116;DHT22;11727;52.134;5.052;2022-09-13T11:31:39;23.00;99.90
23116;DHT22;11727;52.134;5.052;2022-09-13T11:39:37;23.00;99.90
23116;DHT22;11727;52.134;5.052;2022-09-13T11:45:11;23.00;99.90
23116;DHT22;11727;52.134;5.052;2022-09-13T11:53:05;23.10;99.90
23116;DHT22;11727;52.134;5.052;2022-09-13T11:55:55;23.20;99.90
23116;DHT22;11727;52.134;5.052;2022-09-13T11:58:33;23.20;99.90
23116;DHT22;11727;52.134;5.052;2022-09-13T12:01:03;23.30;99.90
23116;DHT22;11727;52.134;5.052;2022-09-13T12:03:35;23.30;99.90
23116;DHT22;11727;52.134;5.052;2022-09-13T12:06:38;23.40;99.90
23116;DHT22;11727;52.134;5.052;2022-09-13T12:09:11;23.40;99.90
23116;DHT22;11727;52.134;5.052;2022-09-13T12:11:43;23.50;99.90
23116;DHT22;11727;52.134;5.052;2022-09-13T12:14:17;23.60;99.90
23116;DHT22;11727;52.134;5.052;2022-09-13T12:16:44;23.50;99.90
23116;DHT22;11727;52.134;5.052;2022-09-13T12:19:43;23.40;99.90
23116;DHT22;11727;52.134;5.052;2022-09-13T12:22:10;23.30;99.90
23116;DHT22;11727;52.134;5.052;2022-09-13T12:24:42;23.20;99.90
23116;DHT22;11727;52.134;5.052;2022-09-13T12:32:31;23.20;99.90
23116;DHT22;11727;52.134;5.052;2022-09-13T12:35:00;23.30;99.90
23116;DHT22;11727;52.134;5.052;2022-09-13T12:40:27;23.30;99.90
23116;DHT22;11727;52.134;5.052;2022-09-13T12:55:15;23.20;99.90
23116;DHT22;11727;52.134;5.052;2022-09-13T13:00:38;23.10;99.90
23116;DHT22;11727;52.134;5.052;2022-09-13T13:05:45;23.20;99.90
23116;DHT22;11727;52.134;5.052;2022-09-13T13:08:28;23.20;99.90
23116;DHT22;11727;52.134;5.052;2022-09-13T13:11:09;23.20;99.90
23116;DHT22;11727;52.134;5.052;2022-09-13T13:13:52;23.30;99.90
23116;DHT22;11727;52.134;5.052;2022-09-13T13:16:31;23.30;99.90
23116;DHT22;11727;52.134;5.052;2022-09-13T13:19:00;23.20;99.90
23116;DHT22;11727;52.134;5.052;2022-09-13T13:26:55;23.10;99.90
23116;DHT22;11727;52.134;5.052;2022-09-13T13:29:28;23.10;99.90
23116;DHT22;11727;52.134;5.052;2022-09-13T13:34:39;22.80;99.90
23116;DHT22;11727;52.134;5.052;2022-09-13T13:37:27;22.80;99.90
23116;DHT22;11727;52.134;5.052;2022-09-13T13:40:22;22.70;99.90
23116;DHT22;11727;52.134;5.052;2022-09-13T13:42:48;22.70;99.90
23116;DHT22;11727;52.134;5.052;2022-09-13T13:45:18;22.70;99.90
23116;DHT22;11727;52.134;5.052;2022-09-13T13:48:06;22.70;99.90
23116;DHT22;11727;52.134;5.052;2022-09-13T13:50:32;22.80;99.90
23116;DHT22;11727;52.134;5.052;2022-09-13T13:53:18;22.80;99.90
23116;DHT22;11727;52.134;5.052;2022-09-13T13:55:46;22.80;99.90
23116;DHT22;11727;52.134;5.052;2022-09-13T13:58:35;22.80;99.90
23116;DHT22;11727;52.134;5.052;2022-09-13T14:01:02;22.80;99.90
23116;DHT22;11727;52.134;5.052;2022-09-13T14:03:58;22.90;99.90
23116;DHT22;11727;52.134;5.052;2022-09-13T14:06:35;22.90;99.90
23116;DHT22;11727;52.134;5.052;2022-09-13T14:09:27;23.10;99.90
23116;DHT22;11727;52.134;5.052;2022-09-13T14:12:14;23.10;99.90
23116;DHT22;11727;52.134;5.052;2022-09-13T14:15:28;23.10;99.90
23116;DHT22;11727;52.134;5.052;2022-09-13T14:20:34;22.90;99.90
23116;DHT22;11727;52.134;5.052;2022-09-13T14:23:16;22.80;99.90
23116;DHT22;11727;52.134;5.052;2022-09-13T14:25:45;22.80;99.90
23116;DHT22;11727;52.134;5.052;2022-09-13T14:28:22;22.80;99.90
23116;DHT22;11727;52.134;5.052;2022-09-13T14:30:52;22.80;99.90
23116;DHT22;11727;52.134;5.052;2022-09-13T14:33:31;22.80;99.90
23116;DHT22;11727;52.134;5.052;2022-09-13T14:36:05;22.80;99.90
23116;DHT22;11727;52.134;5.052;2022-09-13T14:38:33;22.70;99.90
23116;DHT22;11727;52.134;5.052;2022-09-13T14:41:20;22.80;99.90
23116;DHT22;11727;52.134;5.052;2022-09-13T14:43:47;22.80;99.90
23116;DHT22;11727;52.134;5.052;2022-09-13T14:46:36;22.80;99.90
23116;DHT22;11727;52.134;5.052;2022-09-13T14:49:02;22.80;99.90
23116;DHT22;11727;52.134;5.052;2022-09-13T14:51:47;22.70;99.90
23116;DHT22;11727;52.134;5.052;2022-09-13T14:54:17;22.60;99.90
23116;DHT22;11727;52.134;5.052;2022-09-13T14:56:49;22.50;99.90
23116;DHT22;11727;52.134;5.052;2022-09-13T14:59:42;22.50;99.90
23116;DHT22;11727;52.134;5.052;2022-09-13T15:02:28;22.40;99.90
23116;DHT22;11727;52.134;5.052;2022-09-13T15:04:57;22.40;99.90
23116;DHT22;11727;52.134;5.052;2022-09-13T15:07:42;22.30;99.90
23116;DHT22;11727;52.134;5.052;2022-09-13T15:15:30;22.20;99.90
23116;DHT22;11727;52.134;5.052;2022-09-13T15:21:12;22.20;99.90
23116;DHT22;11727;52.134;5.052;2022-09-13T15:23:40;22.20;99.90
23116;DHT22;11727;52.134;5.052;2022-09-13T15:26:08;22.10;99.90
23116;DHT22;11727;52.134;5.052;2022-09-13T15:31:05;22.10;99.90
23116;DHT22;11727;52.134;5.052;2022-09-13T15:33:33;22.10;99.90
23116;DHT22;11727;52.134;5.052;2022-09-13T15:36:26;22.10;99.90
23116;DHT22;11727;52.134;5.052;2022-09-13T15:41:28;22.00;99.90
23116;DHT22;11727;52.134;5.052;2022-09-13T15:43:55;21.90;99.90
23116;DHT22;11727;52.134;5.052;2022-09-13T15:46:20;21.90;99.90
23116;DHT22;11727;52.134;5.052;2022-09-13T15:48:51;21.90;99.90
23116;DHT22;11727;52.134;5.052;2022-09-13T15:51:17;21.80;99.90
23116;DHT22;11727;52.134;5.052;2022-09-13T15:53:45;21.90;99.90
23116;DHT22;11727;52.134;5.052;2022-09-13T15:56:21;21.90;99.90
23116;DHT22;11727;52.134;5.052;2022-09-13T15:58:47;21.90;99.90
23116;DHT22;11727;52.134;5.052;2022-09-13T16:01:14;21.90;99.90
23116;DHT22;11727;52.134;5.052;2022-09-13T16:03:40;21.80;99.90
23116;DHT22;11727;52.134;5.052;2022-09-13T16:06:07;21.80;99.90
23116;DHT22;11727;52.134;5.052;2022-09-13T16:08:34;21.80;99.90
23116;DHT22;11727;52.134;5.052;2022-09-13T16:11:00;21.70;99.90
23116;DHT22;11727;52.134;5.052;2022-09-13T16:13:26;21.70;99.90
23116;DHT22;11727;52.134;5.052;2022-09-13T16:15:51;21.70;99.90
23116;DHT22;11727;52.134;5.052;2022-09-13T16:18:17;21.70;99.90
23116;DHT22;11727;52.134;5.052;2022-09-13T16:20:43;21.70;99.90
23116;DHT22;11727;52.134;5.052;2022-09-13T16:23:09;21.60;99.90
23116;DHT22;11727;52.134;5.052;2022-09-13T16:25:35;21.70;99.90
23116;DHT22;11727;52.134;5.052;2022-09-13T16:28:02;21.70;99.90
23116;DHT22;11727;52.134;5.052;2022-09-13T16:30:28;21.70;99.90
23116;DHT22;11727;52.134;5.052;2022-09-13T16:32:56;21.60;99.90
23116;DHT22;11727;52.134;5.052;2022-09-13T16:35:22;21.50;99.90
23116;DHT22;11727;52.134;5.052;2022-09-13T16:37:48;21.30;99.90
23116;DHT22;11727;52.134;5.052;2022-09-13T16:40:16;21.20;99.90
23116;DHT22;11727;52.134;5.052;2022-09-13T16:42:43;21.10;99.90
23116;DHT22;11727;52.134;5.052;2022-09-13T16:45:09;21.00;99.90
23116;DHT22;11727;52.134;5.052;2022-09-13T16:47:35;21.00;99.90
23116;DHT22;11727;52.134;5.052;2022-09-13T16:50:01;20.90;99.90
23116;DHT22;11727;52.134;5.052;2022-09-13T16:52:27;20.80;99.90
23116;DHT22;11727;52.134;5.052;2022-09-13T16:54:53;20.80;99.90
23116;DHT22;11727;52.134;5.052;2022-09-13T16:57:20;20.80;99.90
23116;DHT22;11727;52.134;5.052;2022-09-13T16:59:45;20.70;99.90
23116;DHT22;11727;52.134;5.052;2022-09-13T17:02:13;20.70;99.90
23116;DHT22;11727;52.134;5.052;2022-09-13T17:04:38;20.60;99.90
23116;DHT22;11727;52.134;5.052;2022-09-13T17:07:04;20.60;99.90
23116;DHT22;11727;52.134;5.052;2022-09-13T17:09:32;20.50;99.90
23116;DHT22;11727;52.134;5.052;2022-09-13T17:11:59;20.50;99.90
23116;DHT22;11727;52.134;5.052;2022-09-13T17:14:24;20.50;99.90
23116;DHT22;11727;52.134;5.052;2022-09-13T17:16:53;20.40;99.90
23116;DHT22;11727;52.134;5.052;2022-09-13T17:19:22;20.40;99.90
23116;DHT22;11727;52.134;5.052;2022-09-13T17:21:50;20.40;99.90
23116;DHT22;11727;52.134;5.052;2022-09-13T17:24:16;20.30;99.90
23116;DHT22;11727;52.134;5.052;2022-09-13T17:26:42;20.30;99.90
23116;DHT22;11727;52.134;5.052;2022-09-13T17:29:11;20.30;99.90
23116;DHT22;11727;52.134;5.052;2022-09-13T17:31:37;20.20;99.90
23116;DHT22;11727;52.134;5.052;2022-09-13T17:34:02;20.20;99.90
23116;DHT22;11727;52.134;5.052;2022-09-13T17:36:29;20.10;99.90
23116;DHT22;11727;52.134;5.052;2022-09-13T17:38:55;20.10;99.90
23116;DHT22;11727;52.134;5.052;2022-09-13T17:41:23;20.10;99.90
23116;DHT22;11727;52.134;5.052;2022-09-13T17:43:49;20.00;99.90
23116;DHT22;11727;52.134;5.052;2022-09-13T17:46:15;19.90;99.90
23116;DHT22;11727;52.134;5.052;2022-09-13T17:48:42;19.80;99.90
23116;DHT22;11727;52.134;5.052;2022-09-13T17:51:13;19.70;99.90
23116;DHT22;11727;52.134;5.052;2022-09-13T17:53:45;19.70;99.90
23116;DHT22;11727;52.134;5.052;2022-09-13T17:56:25;19.60;99.90
23116;DHT22;11727;52.134;5.052;2022-09-13T17:58:54;19.60;99.90
23116;DHT22;11727;52.134;5.052;2022-09-13T18:01:20;19.50;99.90
23116;DHT22;11727;52.134;5.052;2022-09-13T18:03:46;19.40;99.90
23116;DHT22;11727;52.134;5.052;2022-09-13T18:06:12;19.40;99.90
23116;DHT22;11727;52.134;5.052;2022-09-13T18:08:41;19.40;99.90
23116;DHT22;11727;52.134;5.052;2022-09-13T18:11:09;19.30;99.90
23116;DHT22;11727;52.134;5.052;2022-09-13T18:13:35;19.30;99.90
23116;DHT22;11727;52.134;5.052;2022-09-13T18:16:13;19.20;99.90
23116;DHT22;11727;52.134;5.052;2022-09-13T18:18:39;19.20;99.90
23116;DHT22;11727;52.134;5.052;2022-09-13T18:21:05;19.20;99.90
23116;DHT22;11727;52.134;5.052;2022-09-13T18:23:32;19.10;99.90
23116;DHT22;11727;52.134;5.052;2022-09-13T18:26:07;19.10;99.90
23116;DHT22;11727;52.134;5.052;2022-09-13T18:28:33;19.10;99.90
23116;DHT22;11727;52.134;5.052;2022-09-13T18:31:01;19.10;99.90
23116;DHT22;11727;52.134;5.052;2022-09-13T18:33:28;19.00;99.90
23116;DHT22;11727;52.134;5.052;2022-09-13T18:35:55;19.00;99.90
23116;DHT22;11727;52.134;5.052;2022-09-13T18:38:21;19.00;99.90
23116;DHT22;11727;52.134;5.052;2022-09-13T18:40:47;18.90;99.90